Electra — WQ5910 — position and weather

sailwx.info

Track history (hours):
 
Tides and Currents Weather Stations Pressure Air Temp Water Temp Dewpoint Dewpoint Depression Visibility Wind Speed Wind Dir Waves Ship Positions

Electra

Owner: HELGREN, RICHARD F, OCEANSIDE, CA. More information available from US FCC via Universal Licensing System and Coast Guard Vessel Documentation Center.

Last reported at 2017-Dec-14 04:28 UTC. Time now 2017-Dec-18 05:29 UTC.
Position N 33°21' W 117°37'.

Length 24 m.

Type: Wing in ground effect craft. MMSI: 367394780.

Date/timePositionNaut miles runAvg speedWind from/ knotsBaromVisibWave heightAir tempDewpointWater temp
2017-Dec-14 04:28N 33°21' W 117°37'511.2
2017-Dec-14 03:59N 33°17' W 117°32'510.9
2017-Dec-14 03:30N 33°14' W 117°28'4 7.0
2017-Dec-14 03:00N 33°12' W 117°24'0 0.0
2017-Dec-14 02:29N 33°12' W 117°24'0 0.0
2017-Dec-14 02:00N 33°12' W 117°24'0 0.0
2017-Dec-14 01:30N 33°12' W 117°24'0 0.0
2017-Dec-14 01:00N 33°12' W 117°24'0 0.0
2017-Dec-14 00:30N 33°12' W 117°24'0 0.0
2017-Dec-14 00:00N 33°12' W 117°24'0 0.0
2017-Dec-13 23:30N 33°12' W 117°24'0 0.0
2017-Dec-13 23:00N 33°12' W 117°24'0 0.1
2017-Dec-13 22:30N 33°12' W 117°24'0 0.0
2017-Dec-13 00:02N 33°12' W 117°24'0 0.0
2017-Dec-13 00:00N 33°12' W 117°24'0 0.4
2017-Dec-12 23:27N 33°12' W 117°23'4 8.8
2017-Dec-12 23:01N 33°14' W 117°28'5 9.6
2017-Dec-12 22:30N 33°16' W 117°33'1 1.1
2017-Dec-12 22:00N 33°16' W 117°33'0 0.0
2017-Dec-12 21:19N 33°16' W 117°33'0 0.1
2017-Dec-12 21:00N 33°16' W 117°33'1 0.9
2017-Dec-12 20:27N 33°16' W 117°33'0 1.1
2017-Dec-12 20:01N 33°15' W 117°33'1 1.2
2017-Dec-12 19:30N 33°15' W 117°32'1 2.8
2017-Dec-12 19:00N 33°15' W 117°31'4 9.0
2017-Dec-12 18:31N 33°13' W 117°26'  
2017-Dec-10 04:13N 33°12' W 117°24'0 0.3
2017-Dec-10 03:50N 33°12' W 117°24'0 0.2
2017-Dec-10 03:28N 33°12' W 117°24'0 0.1
2017-Dec-09 23:26N 33°12' W 117°23'4 8.6
2017-Dec-09 23:01N 33°13' W 117°28'5 9.4
2017-Dec-09 22:30N 33°15' W 117°33'1 1.1
2017-Dec-09 22:01N 33°16' W 117°33'0 0.7
2017-Dec-09 21:30N 33°15' W 117°33'0 0.1
2017-Dec-09 21:00N 33°15' W 117°33'1 1.2
2017-Dec-09 20:30N 33°16' W 117°33'0 0.0
2017-Dec-09 20:00N 33°16' W 117°33'0 0.0
2017-Dec-09 19:30N 33°16' W 117°33'3 5.5
2017-Dec-09 19:00N 33°15' W 117°30'5 9.5
2017-Dec-09 18:30N 33°12' W 117°25'1 1.1
2017-Dec-09 17:37N 33°12' W 117°24'0 0.1
2017-Dec-09 17:30N 33°12' W 117°24'  
Track history (hours):
 
Tides and Currents Weather Stations Pressure Air Temp Water Temp Dewpoint Dewpoint Depression Visibility Wind Speed Wind Dir Waves Ship Positions

Electra

Owner: HELGREN, RICHARD F, OCEANSIDE, CA. More information available from US FCC via Universal Licensing System and Coast Guard Vessel Documentation Center.

Last reported at 2017-Dec-14 04:28 UTC. Time now 2017-Dec-18 05:29 UTC.
Position N 33°21' W 117°37'.

Length 24 m.

Type: Wing in ground effect craft. MMSI: 367394780.

Date/timePositionNaut miles runAvg speedWind from/ knotsBaromVisibWave heightAir tempDewpointWater temp
2017-Dec-14 04:28N 33°21' W 117°37'511.2
2017-Dec-14 03:59N 33°17' W 117°32'510.9
2017-Dec-14 03:30N 33°14' W 117°28'4 7.0
2017-Dec-14 03:00N 33°12' W 117°24'0 0.0
2017-Dec-14 02:29N 33°12' W 117°24'0 0.0
2017-Dec-14 02:00N 33°12' W 117°24'0 0.0
2017-Dec-14 01:30N 33°12' W 117°24'0 0.0
2017-Dec-14 01:00N 33°12' W 117°24'0 0.0
2017-Dec-14 00:30N 33°12' W 117°24'0 0.0
2017-Dec-14 00:00N 33°12' W 117°24'0 0.0
2017-Dec-13 23:30N 33°12' W 117°24'0 0.0
2017-Dec-13 23:00N 33°12' W 117°24'0 0.1
2017-Dec-13 22:30N 33°12' W 117°24'0 0.0
2017-Dec-13 00:02N 33°12' W 117°24'0 0.0
2017-Dec-13 00:00N 33°12' W 117°24'0 0.4
2017-Dec-12 23:27N 33°12' W 117°23'4 8.8
2017-Dec-12 23:01N 33°14' W 117°28'5 9.6
2017-Dec-12 22:30N 33°16' W 117°33'1 1.1
2017-Dec-12 22:00N 33°16' W 117°33'0 0.0
2017-Dec-12 21:19N 33°16' W 117°33'0 0.1
2017-Dec-12 21:00N 33°16' W 117°33'1 0.9
2017-Dec-12 20:27N 33°16' W 117°33'0 1.1
2017-Dec-12 20:01N 33°15' W 117°33'1 1.2
2017-Dec-12 19:30N 33°15' W 117°32'1 2.8
2017-Dec-12 19:00N 33°15' W 117°31'4 9.0
2017-Dec-12 18:31N 33°13' W 117°26'  
2017-Dec-10 04:13N 33°12' W 117°24'0 0.3
2017-Dec-10 03:50N 33°12' W 117°24'0 0.2
2017-Dec-10 03:28N 33°12' W 117°24'0 0.1
2017-Dec-09 23:26N 33°12' W 117°23'4 8.6
2017-Dec-09 23:01N 33°13' W 117°28'5 9.4
2017-Dec-09 22:30N 33°15' W 117°33'1 1.1
2017-Dec-09 22:01N 33°16' W 117°33'0 0.7
2017-Dec-09 21:30N 33°15' W 117°33'0 0.1
2017-Dec-09 21:00N 33°15' W 117°33'1 1.2
2017-Dec-09 20:30N 33°16' W 117°33'0 0.0
2017-Dec-09 20:00N 33°16' W 117°33'0 0.0
2017-Dec-09 19:30N 33°16' W 117°33'3 5.5
2017-Dec-09 19:00N 33°15' W 117°30'5 9.5
2017-Dec-09 18:30N 33°12' W 117°25'1 1.1
2017-Dec-09 17:37N 33°12' W 117°24'0 0.1
2017-Dec-09 17:30N 33°12' W 117°24'  

Dump ship's entire track history